Time;durP1;ratioP1;P1;durP2;ratioP2;P2;SDS_P1;SDS_P2;PMS_P1;PMS_P2;Temp;Humidity;BMP_temperature;BMP_pressure;BME280_temperature;BME280_humidity;BME280_pressure;Samples;Min_cycle;Max_cycle;Signal;HPM_P1;HPM_P2
2022/08/15 00:01:52;;;;;;;5.63;4.20;;;22.60;50.30;;;;;;5015081;28;20442;-66
2022/08/15 00:04:19;;;;;;;6.73;3.70;;;22.60;50.50;;;;;;5014888;28;20993;-66
2022/08/15 00:06:47;;;;;;;5.20;4.07;;;22.60;50.60;;;;;;5015115;28;20448;-67
2022/08/15 00:09:18;;;;;;;4.43;3.53;;;22.60;50.50;;;;;;5014486;28;20526;-67
2022/08/15 00:11:47;;;;;;;5.53;3.77;;;22.60;50.70;;;;;;5014916;28;20442;-66
2022/08/15 00:14:20;;;;;;;6.27;3.37;;;22.60;51.10;;;;;;5014703;28;21006;-66
2022/08/15 00:16:48;;;;;;;4.50;3.30;;;22.60;51.40;;;;;;5015076;28;20439;-66
2022/08/15 00:19:18;;;;;;;5.47;3.83;;;22.60;51.40;;;;;;5014957;28;20439;-66
2022/08/15 00:21:49;;;;;;;6.33;3.50;;;22.60;51.60;;;;;;5015038;28;20478;-66
2022/08/15 00:24:19;;;;;;;4.90;3.37;;;22.60;51.30;;;;;;5014762;28;20489;-67
2022/08/15 00:26:48;;;;;;;3.83;3.43;;;22.50;50.80;;;;;;5014611;28;20446;-66
2022/08/15 00:29:18;;;;;;;7.13;4.10;;;22.50;51.20;;;;;;5014469;28;20439;-66
2022/08/15 00:31:45;;;;;;;4.07;3.17;;;22.50;51.70;;;;;;5014613;28;20446;-66
2022/08/15 00:34:15;;;;;;;3.83;3.00;;;22.50;51.40;;;;;;5014283;28;20450;-66
2022/08/15 00:36:42;;;;;;;4.80;3.50;;;22.50;51.00;;;;;;5014422;28;20435;-66
2022/08/15 00:39:09;;;;;;;8.43;5.07;;;22.50;51.00;;;;;;5014426;28;20458;-66
2022/08/15 00:41:42;;;;;;;4.17;3.23;;;22.60;51.20;;;;;;5014160;28;20533;-66
2022/08/15 00:44:13;;;;;;;6.57;3.10;;;22.60;51.40;;;;;;5013837;28;20561;-66
2022/08/15 00:46:44;;;;;;;4.77;4.00;;;22.60;51.50;;;;;;5014450;28;20478;-66
2022/08/15 00:49:16;;;;;;;5.57;3.90;;;22.50;51.80;;;;;;5014608;28;20439;-66
2022/08/15 00:51:47;;;;;;;3.77;3.10;;;22.50;51.30;;;;;;5013806;28;20522;-66
2022/08/15 00:54:19;;;;;;;5.73;3.80;;;22.40;51.10;;;;;;5014439;28;20800;-66
2022/08/15 00:56:49;;;;;;;6.10;3.70;;;22.40;51.80;;;;;;5014078;28;20797;-66
2022/08/15 00:59:21;;;;;;;4.60;3.43;;;22.30;52.20;;;;;;5013043;28;20451;-66
2022/08/15 01:01:50;;;;;;;4.50;3.77;;;22.40;52.40;;;;;;5013836;28;20449;-66
2022/08/15 01:04:19;;;;;;;4.30;3.37;;;22.30;52.50;;;;;;5013943;28;20482;-66
2022/08/15 01:06:48;;;;;;;5.83;4.20;;;22.30;52.50;;;;;;5013863;28;20489;-66
2022/08/15 01:09:17;;;;;;;5.00;3.20;;;22.30;52.80;;;;;;5013951;28;20446;-66
2022/08/15 01:11:49;;;;;;;5.37;3.50;;;22.30;52.50;;;;;;5014265;28;20477;-66
2022/08/15 01:14:18;;;;;;;6.83;3.87;;;22.30;52.70;;;;;;5013868;28;20438;-66
2022/08/15 01:16:45;;;;;;;6.53;4.40;;;22.30;52.80;;;;;;5013989;28;20508;-66
2022/08/15 01:19:17;;;;;;;6.43;3.37;;;22.30;53.10;;;;;;5013904;28;20949;-66
2022/08/15 01:22:14;;;;;;;4.23;3.60;;;22.30;53.00;;;;;;5013998;28;21036;-66
2022/08/15 01:24:57;;;;;;;5.30;3.80;;;22.30;53.00;;;;;;5013331;28;20486;-66
2022/08/15 01:27:30;;;;;;;6.23;4.30;;;22.30;53.40;;;;;;5013415;28;20545;-66
2022/08/15 01:29:59;;;;;;;4.77;3.93;;;22.30;53.40;;;;;;5013524;28;20964;-66
2022/08/15 01:32:26;;;;;;;6.50;3.70;;;22.30;53.30;;;;;;5013065;28;20446;-66
2022/08/15 01:34:53;;;;;;;5.13;4.27;;;22.30;53.60;;;;;;5013284;28;20450;-66
2022/08/15 01:37:22;;;;;;;4.53;3.03;;;22.30;53.70;;;;;;5013232;28;20537;-66
2022/08/15 01:39:58;;;;;;;5.63;3.37;;;22.30;53.70;;;;;;5027217;28;20438;-66
2022/08/15 01:42:30;;;;;;;3.90;3.30;;;22.30;53.70;;;;;;5033096;28;20445;-66
2022/08/15 01:45:00;;;;;;;4.60;3.50;;;22.30;53.60;;;;;;5031935;28;20577;-66
2022/08/15 01:47:33;;;;;;;4.93;3.83;;;22.30;53.90;;;;;;5032762;28;20512;-66
2022/08/15 01:50:08;;;;;;;6.93;3.77;;;22.30;54.20;;;;;;5016478;28;20467;-66
2022/08/15 01:52:40;;;;;;;4.80;3.40;;;22.20;54.60;;;;;;4993715;28;20439;-66
2022/08/15 01:55:11;;;;;;;6.33;4.10;;;22.10;54.90;;;;;;5005722;28;20830;-67
2022/08/15 01:57:38;;;;;;;4.70;4.10;;;22.10;55.20;;;;;;5013308;28;20505;-66
2022/08/15 02:00:08;;;;;;;4.63;3.97;;;22.00;55.40;;;;;;5013043;28;20445;-68
2022/08/15 02:02:35;;;;;;;5.90;4.23;;;22.00;56.20;;;;;;5012735;28;20900;-66
2022/08/15 02:05:02;;;;;;;6.07;4.50;;;22.00;56.30;;;;;;5012065;28;21055;-66
2022/08/15 02:07:31;;;;;;;5.77;4.87;;;22.00;56.90;;;;;;5012719;28;20488;-66
2022/08/15 02:09:58;;;;;;;10.77;5.07;;;22.00;57.90;;;;;;5013008;28;20508;-67
2022/08/15 02:12:29;;;;;;;4.97;4.13;;;22.00;57.20;;;;;;5012490;28;20524;-66
2022/08/15 02:14:56;;;;;;;9.20;4.40;;;22.00;58.50;;;;;;5012667;28;20442;-67
2022/08/15 02:17:24;;;;;;;5.00;4.27;;;21.90;59.00;;;;;;5012588;28;20820;-66
2022/08/15 02:19:51;;;;;;;8.30;4.77;;;22.00;59.50;;;;;;5012565;28;20470;-66
2022/08/15 02:22:21;;;;;;;4.83;3.70;;;21.90;59.10;;;;;;5012436;28;20446;-66
2022/08/15 02:24:48;;;;;;;6.93;4.33;;;21.90;58.20;;;;;;5012552;28;20521;-66
2022/08/15 02:27:16;;;;;;;4.73;4.20;;;21.80;58.30;;;;;;5012143;28;20492;-66
2022/08/15 02:29:44;;;;;;;9.60;3.90;;;21.70;58.30;;;;;;5010305;28;20573;-66
2022/08/15 02:32:14;;;;;;;6.17;4.63;;;21.80;58.80;;;;;;5011289;28;20446;-66
2022/08/15 02:34:43;;;;;;;11.37;9.73;;;21.80;59.20;;;;;;5012125;28;20512;-66
2022/08/15 02:37:11;;;;;;;10.47;5.97;;;21.80;59.90;;;;;;5012438;28;20537;-66
2022/08/15 02:39:40;;;;;;;6.30;5.17;;;21.80;60.60;;;;;;5012623;28;20446;-71
2022/08/15 02:42:08;;;;;;;6.67;4.03;;;21.80;60.70;;;;;;5012415;28;20439;-66
2022/08/15 02:44:35;;;;;;;6.83;3.97;;;21.80;60.10;;;;;;5012288;28;20497;-67
2022/08/15 02:47:04;;;;;;;6.90;4.00;;;21.80;59.60;;;;;;5012385;28;20461;-66
2022/08/15 02:49:31;;;;;;;4.70;3.73;;;21.80;59.10;;;;;;5012357;28;20446;-66
2022/08/15 02:51:58;;;;;;;6.47;3.60;;;21.80;59.60;;;;;;5012370;28;20572;-66
2022/08/15 02:54:26;;;;;;;6.07;3.47;;;21.80;59.90;;;;;;5012326;28;20442;-66
2022/08/15 02:56:55;;;;;;;6.40;3.23;;;21.80;60.60;;;;;;5012399;28;20524;-66
2022/08/15 02:59:24;;;;;;;7.53;3.13;;;21.80;60.40;;;;;;5011920;28;20441;-72
2022/08/15 03:01:52;;;;;;;4.83;3.80;;;21.80;60.40;;;;;;5012291;28;20503;-66
2022/08/15 03:04:23;;;;;;;5.63;3.40;;;21.80;60.10;;;;;;5012011;28;20576;-66
2022/08/15 03:06:53;;;;;;;7.90;3.37;;;21.70;59.60;;;;;;5012066;28;20810;-66
2022/08/15 03:09:22;;;;;;;7.10;4.13;;;21.80;60.50;;;;;;5011637;28;20445;-66
2022/08/15 03:11:49;;;;;;;4.53;3.70;;;21.70;60.40;;;;;;5011599;28;20460;-67
2022/08/15 03:14:18;;;;;;;6.30;4.10;;;21.70;61.50;;;;;;4992367;28;20805;-66
2022/08/15 03:16:48;;;;;;;7.97;4.17;;;21.70;61.40;;;;;;4995945;28;20447;-66
2022/08/15 03:19:18;;;;;;;5.50;3.43;;;21.70;62.00;;;;;;5015394;28;21003;-66
2022/08/15 03:21:48;;;;;;;5.00;4.13;;;21.70;62.20;;;;;;5015895;28;20438;-66
2022/08/15 03:24:16;;;;;;;6.80;4.70;;;21.70;61.90;;;;;;5015495;28;20482;-66
2022/08/15 03:26:46;;;;;;;6.33;4.07;;;21.60;61.10;;;;;;5015310;28;20442;-66
2022/08/15 03:29:16;;;;;;;6.70;3.70;;;21.60;61.60;;;;;;5015705;28;20515;-66
2022/08/15 03:31:44;;;;;;;3.90;3.00;;;21.60;61.60;;;;;;5015232;28;20438;-66
2022/08/15 03:34:12;;;;;;;6.00;4.97;;;21.60;61.90;;;;;;5015995;28;20790;-66
2022/08/15 03:36:40;;;;;;;4.80;3.60;;;21.60;61.90;;;;;;5015443;28;20515;-66
2022/08/15 03:39:08;;;;;;;4.80;3.93;;;21.70;61.70;;;;;;5015478;28;20442;-66
2022/08/15 03:41:35;;;;;;;5.50;4.50;;;21.60;61.60;;;;;;5015605;28;20446;-67
2022/08/15 03:44:03;;;;;;;4.63;3.80;;;21.60;61.90;;;;;;5015760;28;20563;-66
2022/08/15 03:46:30;;;;;;;4.67;3.63;;;21.60;62.20;;;;;;5014954;28;20468;-67
2022/08/15 03:49:00;;;;;;;6.27;3.73;;;21.50;62.50;;;;;;5015560;28;20445;-66
2022/08/15 03:51:28;;;;;;;6.80;3.93;;;21.50;62.70;;;;;;5016243;28;20446;-66
2022/08/15 03:53:58;;;;;;;8.13;3.97;;;21.50;62.70;;;;;;5035183;28;20448;-66
2022/08/15 03:56:30;;;;;;;5.90;3.40;;;21.50;62.80;;;;;;5034014;28;20547;-66
2022/08/15 03:58:59;;;;;;;8.20;4.83;;;21.50;63.00;;;;;;5035290;28;20801;-66
2022/08/15 04:01:29;;;;;;;7.10;4.43;;;21.60;63.20;;;;;;5034153;28;20463;-66
2022/08/15 04:03:56;;;;;;;7.70;3.97;;;21.50;64.60;;;;;;5035318;28;20858;-66
2022/08/15 04:06:25;;;;;;;6.23;3.80;;;21.50;63.90;;;;;;5034312;28;20444;-66
2022/08/15 04:08:54;;;;;;;4.73;3.83;;;21.50;63.70;;;;;;5035049;28;20498;-66
2022/08/15 04:11:23;;;;;;;6.37;4.10;;;21.50;64.50;;;;;;5035253;28;20452;-68
2022/08/15 04:13:51;;;;;;;7.23;3.83;;;21.50;64.50;;;;;;5015085;28;20491;-66
2022/08/15 04:16:18;;;;;;;5.03;3.63;;;21.50;64.50;;;;;;5015298;28;20444;-66
2022/08/15 04:18:46;;;;;;;5.43;3.43;;;21.50;64.90;;;;;;5014714;28;21013;-66
2022/08/15 04:21:14;;;;;;;3.90;3.07;;;21.50;64.80;;;;;;5015372;28;20811;-67
2022/08/15 04:23:44;;;;;;;5.37;3.73;;;21.50;65.30;;;;;;5014913;28;20511;-66
2022/08/15 04:26:12;;;;;;;4.80;3.20;;;21.50;65.20;;;;;;5014842;28;20440;-67
2022/08/15 04:28:39;;;;;;;4.60;3.37;;;21.50;64.90;;;;;;5014591;28;20488;-66
2022/08/15 04:31:11;;;;;;;6.00;3.40;;;21.40;65.30;;;;;;5014981;28;20811;-66
2022/08/15 04:33:38;;;;;;;4.70;3.73;;;21.40;65.60;;;;;;5015071;28;20441;-68
2022/08/15 04:36:09;;;;;;;7.90;4.40;;;21.40;65.30;;;;;;5015093;28;20542;-66
2022/08/15 04:38:37;;;;;;;5.13;3.33;;;21.40;65.60;;;;;;5014721;28;20477;-67
2022/08/15 04:41:05;;;;;;;9.60;3.50;;;21.40;66.00;;;;;;5010695;28;20437;-67
2022/08/15 04:43:34;;;;;;;6.00;3.50;;;21.40;65.90;;;;;;5013351;28;21063;-66
2022/08/15 04:46:02;;;;;;;5.83;3.10;;;21.40;65.00;;;;;;5012329;28;20462;-67
2022/08/15 04:48:31;;;;;;;5.50;2.80;;;21.40;65.00;;;;;;5013051;28;20487;-66
2022/08/15 04:50:59;;;;;;;4.20;3.30;;;21.50;65.30;;;;;;5012821;28;20448;-66
2022/08/15 04:53:29;;;;;;;5.93;2.67;;;21.50;65.00;;;;;;5013296;28;20450;-66
2022/08/15 04:55:58;;;;;;;4.47;2.70;;;21.50;64.70;;;;;;5012249;28;20477;-67
2022/08/15 04:58:25;;;;;;;6.63;2.40;;;21.50;64.40;;;;;;5013049;28;20449;-66
2022/08/15 05:00:57;;;;;;;7.10;2.40;;;21.50;64.10;;;;;;5016577;28;21006;-66
2022/08/15 05:03:25;;;;;;;4.33;2.60;;;21.50;63.90;;;;;;5012426;28;20445;-67
2022/08/15 05:05:56;;;;;;;3.60;2.77;;;21.60;63.90;;;;;;5012675;28;20518;-66
2022/08/15 05:08:26;;;;;;;4.03;2.60;;;21.60;63.50;;;;;;5012951;28;20479;-66
2022/08/15 05:10:57;;;;;;;2.70;2.00;;;21.60;63.90;;;;;;5012070;28;20522;-66
2022/08/15 05:13:27;;;;;;;5.37;2.23;;;21.60;63.30;;;;;;5009109;28;20439;-66
2022/08/15 05:15:54;;;;;;;4.57;1.90;;;21.60;63.50;;;;;;5012833;28;20455;-66
2022/08/15 05:18:23;;;;;;;4.73;1.67;;;21.50;63.30;;;;;;5012350;28;20489;-66
2022/08/15 05:20:50;;;;;;;2.67;1.57;;;21.50;61.80;;;;;;5008462;28;20881;-66
2022/08/15 05:23:20;;;;;;;2.40;1.10;;;21.50;62.00;;;;;;5013610;28;20507;-66
2022/08/15 05:25:51;;;;;;;2.57;1.40;;;21.50;62.40;;;;;;5012175;28;20634;-66
2022/08/15 05:28:19;;;;;;;2.20;1.50;;;21.40;63.10;;;;;;5015342;28;20448;-66
2022/08/15 05:30:46;;;;;;;4.00;1.30;;;21.40;65.30;;;;;;5012471;28;20534;-66
2022/08/15 05:33:15;;;;;;;3.10;1.40;;;21.30;65.90;;;;;;5012007;28;20442;-66
2022/08/15 05:35:44;;;;;;;2.30;1.00;;;21.40;66.40;;;;;;5011954;28;20987;-66
2022/08/15 05:38:15;;;;;;;3.23;1.40;;;21.50;67.30;;;;;;5011908;28;21029;-66
2022/08/15 05:41:01;;;;;;;2.73;1.00;;;21.40;67.00;;;;;;5009520;28;20532;-66
2022/08/15 05:43:41;;;;;;;3.63;1.50;;;21.30;66.60;;;;;;5012096;28;20553;-67
2022/08/15 05:46:19;;;;;;;2.70;1.30;;;21.10;67.10;;;;;;5009388;28;20487;-66
2022/08/15 05:48:52;;;;;;;2.63;1.30;;;21.00;68.10;;;;;;5012021;28;20452;-66
2022/08/15 05:51:26;;;;;;;2.53;1.40;;;20.80;67.50;;;;;;5010693;28;20449;-66
2022/08/15 05:54:03;;;;;;;2.53;1.70;;;20.80;68.10;;;;;;5011825;28;20446;-66
2022/08/15 05:56:42;;;;;;;3.30;1.63;;;20.70;68.60;;;;;;5012102;28;20799;-66
2022/08/15 05:59:16;;;;;;;2.60;1.43;;;20.60;68.40;;;;;;5011663;28;20498;-66
2022/08/15 06:01:47;;;;;;;2.50;1.40;;;20.60;68.90;;;;;;5008204;28;20437;-66
2022/08/15 06:04:21;;;;;;;3.00;1.43;;;20.60;68.70;;;;;;5011572;28;20491;-66
2022/08/15 06:06:50;;;;;;;2.00;1.30;;;20.70;68.40;;;;;;5011543;28;20449;-66
2022/08/15 06:09:33;;;;;;;2.40;1.40;;;20.70;68.30;;;;;;5011405;28;20500;-66
2022/08/15 06:12:07;;;;;;;8.13;1.30;;;20.60;68.70;;;;;;5011078;28;20451;-67
2022/08/15 06:14:37;;;;;;;3.27;1.80;;;20.60;69.50;;;;;;5011917;28;20448;-66
2022/08/15 06:17:11;;;;;;;4.83;1.80;;;20.60;69.80;;;;;;5011609;28;20441;-69
2022/08/15 06:19:43;;;;;;;2.33;1.20;;;20.50;70.00;;;;;;5008363;28;20856;-66
2022/08/15 06:22:34;;;;;;;3.27;1.20;;;20.50;70.70;;;;;;5011232;28;20453;-66
2022/08/15 06:25:15;;;;;;;2.90;1.20;;;20.50;70.80;;;;;;5009858;28;20478;-66
2022/08/15 06:28:01;;;;;;;3.13;1.43;;;20.40;70.90;;;;;;5009070;28;20513;-66
2022/08/15 06:30:34;;;;;;;2.57;1.50;;;20.40;71.30;;;;;;5007407;28;20808;-66
2022/08/15 06:33:14;;;;;;;2.40;1.70;;;20.50;71.50;;;;;;5011003;28;20500;-66
2022/08/15 06:35:50;;;;;;;4.20;1.37;;;20.60;71.90;;;;;;5007585;28;20838;-70
2022/08/15 06:38:22;;;;;;;2.60;1.57;;;20.70;71.80;;;;;;5013069;28;20443;-66
2022/08/15 06:40:56;;;;;;;2.83;1.70;;;20.70;71.20;;;;;;5010813;28;20440;-66
2022/08/15 06:43:24;;;;;;;2.47;1.40;;;20.80;71.20;;;;;;5011214;28;20442;-66
2022/08/15 06:45:56;;;;;;;3.23;2.10;;;20.90;70.00;;;;;;5010470;28;20547;-68
2022/08/15 06:48:26;;;;;;;3.07;1.70;;;20.90;70.50;;;;;;5007542;28;20473;-66
2022/08/15 06:50:56;;;;;;;4.77;2.07;;;20.90;70.00;;;;;;5010716;28;20443;-66
2022/08/15 06:53:29;;;;;;;2.80;1.60;;;21.00;70.90;;;;;;5010642;28;20987;-67
2022/08/15 06:56:06;;;;;;;5.43;2.10;;;21.00;71.70;;;;;;5010713;28;20444;-67
2022/08/15 06:58:45;;;;;;;2.77;1.60;;;21.10;73.50;;;;;;5011048;28;20457;-67
2022/08/15 07:01:24;;;;;;;2.50;1.50;;;21.10;74.10;;;;;;5008750;28;20547;-67
2022/08/15 07:03:58;;;;;;;2.37;1.53;;;21.10;74.10;;;;;;5010359;28;20525;-66
2022/08/15 07:06:33;;;;;;;3.70;1.73;;;21.10;74.30;;;;;;5011103;28;20489;-66
2022/08/15 07:09:08;;;;;;;2.37;1.70;;;21.10;74.80;;;;;;5011091;28;20437;-66
2022/08/15 07:11:43;;;;;;;2.50;1.60;;;21.20;75.30;;;;;;5011122;28;20450;-66
2022/08/15 07:14:22;;;;;;;3.50;1.50;;;21.20;74.80;;;;;;5010150;28;20452;-66
2022/08/15 07:16:56;;;;;;;2.90;1.73;;;21.20;72.80;;;;;;5010863;28;20444;-66
2022/08/15 07:19:25;;;;;;;3.43;1.70;;;21.20;71.30;;;;;;5011618;28;20448;-66
2022/08/15 07:21:52;;;;;;;2.53;1.10;;;21.20;71.10;;;;;;5010776;28;20545;-66
2022/08/15 07:24:28;;;;;;;2.90;1.70;;;21.20;71.20;;;;;;5010888;28;21001;-66
2022/08/15 07:26:57;;;;;;;2.93;1.63;;;21.20;70.90;;;;;;5006726;28;20446;-66
2022/08/15 07:29:41;;;;;;;2.97;1.73;;;21.30;70.90;;;;;;5010760;28;20449;-66
2022/08/15 07:32:11;;;;;;;3.37;1.90;;;21.40;70.50;;;;;;5010833;28;20449;-67
2022/08/15 07:34:54;;;;;;;6.43;1.70;;;21.50;70.50;;;;;;5010584;28;20446;-66
2022/08/15 07:37:24;;;;;;;3.00;1.67;;;21.50;70.10;;;;;;5007461;28;20437;-66
2022/08/15 07:40:20;;;;;;;2.60;1.67;;;21.60;69.60;;;;;;5010659;28;20439;-66
2022/08/15 07:42:48;;;;;;;3.40;1.90;;;21.60;69.50;;;;;;5009337;28;20492;-66
2022/08/15 07:45:19;;;;;;;2.67;1.67;;;21.50;69.70;;;;;;5010017;28;20492;-66
2022/08/15 07:47:55;;;;;;;2.90;1.77;;;21.50;70.00;;;;;;5010517;28;20462;-66
2022/08/15 07:50:37;;;;;;;3.37;2.10;;;21.50;70.10;;;;;;5010434;28;20552;-67
2022/08/15 07:53:16;;;;;;;4.50;1.90;;;21.60;70.40;;;;;;5008494;28;20441;-66
2022/08/15 07:56:04;;;;;;;3.00;1.73;;;21.60;70.30;;;;;;5006580;28;20438;-66
2022/08/15 07:58:33;;;;;;;4.50;1.30;;;21.60;70.70;;;;;;5014402;28;20445;-67
2022/08/15 08:01:12;;;;;;;2.77;1.40;;;21.50;70.70;;;;;;5007483;28;20452;-74
2022/08/15 08:03:43;;;;;;;3.37;1.93;;;21.50;70.80;;;;;;5008969;28;20458;-67
2022/08/15 08:06:22;;;;;;;2.43;1.70;;;21.60;71.30;;;;;;5003288;28;21062;-69
2022/08/15 08:09:00;;;;;;;2.73;1.63;;;21.60;70.80;;;;;;5008812;28;20527;-68
2022/08/15 08:11:39;;;;;;;2.83;1.77;;;21.70;70.70;;;;;;5009470;28;20442;-67
2022/08/15 08:14:14;;;;;;;2.60;2.03;;;21.80;71.20;;;;;;5008878;28;20878;-67
2022/08/15 08:16:55;;;;;;;3.47;2.13;;;21.80;71.10;;;;;;5011962;28;20450;-68
2022/08/15 08:19:34;;;;;;;2.30;1.70;;;21.90;71.90;;;;;;5012685;28;20813;-66
2022/08/15 08:22:11;;;;;;;2.60;1.73;;;22.00;72.50;;;;;;5012691;28;20439;-68
2022/08/15 08:24:53;;;;;;;3.17;2.17;;;22.00;72.40;;;;;;5010708;28;20435;-66
2022/08/15 08:27:32;;;;;;;5.80;2.47;;;22.10;73.20;;;;;;5012370;28;20447;-66
2022/08/15 08:30:08;;;;;;;3.70;2.60;;;22.20;72.00;;;;;;5012804;28;21184;-73
2022/08/15 08:32:46;;;;;;;3.60;2.90;;;22.30;72.40;;;;;;5006446;28;20564;-66
2022/08/15 08:35:24;;;;;;;4.77;3.90;;;22.30;72.20;;;;;;5011715;28;20445;-66
2022/08/15 08:38:02;;;;;;;7.50;3.70;;;22.30;71.80;;;;;;5009456;28;20500;-66
2022/08/15 08:43:39;;;;;;;7.20;3.80;;;22.60;71.70;;;;;;5012083;28;20460;-67
2022/08/15 08:46:38;;;;;;;4.07;3.37;;;22.60;70.90;;;;;;5011823;28;20474;-67
2022/08/15 08:49:18;;;;;;;7.33;3.67;;;22.90;71.10;;;;;;5011640;28;20792;-67
2022/08/15 08:51:53;;;;;;;5.03;3.53;;;23.10;70.40;;;;;;5015442;28;20491;-66
2022/08/15 08:54:27;;;;;;;4.20;3.03;;;23.30;70.00;;;;;;5011828;28;20876;-70
2022/08/15 08:56:56;;;;;;;11.10;3.70;;;23.40;70.60;;;;;;5008067;28;20462;-66
2022/08/15 08:59:28;;;;;;;5.37;3.47;;;23.60;70.40;;;;;;5009174;28;20537;-70
2022/08/15 09:02:01;;;;;;;4.47;3.60;;;23.70;68.60;;;;;;5007924;28;20446;-66
2022/08/15 09:04:40;;;;;;;5.40;4.07;;;23.90;67.40;;;;;;5014458;28;20488;-67
2022/08/15 09:07:11;;;;;;;5.90;3.90;;;24.00;67.40;;;;;;5006683;28;20577;-66
2022/08/15 09:09:42;;;;;;;4.20;3.70;;;24.20;67.40;;;;;;5012185;28;20446;-66
2022/08/15 09:15:01;;;;;;;6.20;3.13;;;24.40;66.20;;;;;;5011787;28;20422;-67
2022/08/15 09:17:33;;;;;;;4.20;3.40;;;24.50;65.60;;;;;;5008148;28;20439;-67
2022/08/15 09:20:10;;;;;;;5.40;3.57;;;24.60;65.90;;;;;;5011223;28;20461;-66
2022/08/15 09:22:37;;;;;;;5.00;3.50;;;24.70;65.00;;;;;;5011673;28;20466;-67
2022/08/15 09:25:07;;;;;;;5.30;3.73;;;24.70;62.60;;;;;;5011853;28;20948;-68
2022/08/15 09:27:42;;;;;;;5.20;3.70;;;24.70;61.40;;;;;;5011751;28;20474;-66
2022/08/15 09:30:15;;;;;;;4.97;3.73;;;24.60;61.90;;;;;;5006951;28;20521;-67
2022/08/15 09:33:06;;;;;;;3.60;2.70;;;24.70;61.90;;;;;;5012307;28;20529;-68
2022/08/15 09:36:04;;;;;;;4.47;3.57;;;24.70;62.10;;;;;;5009140;28;20443;-68
2022/08/15 09:38:53;;;;;;;4.80;3.90;;;24.90;61.60;;;;;;5011976;28;20526;-66
2022/08/15 09:41:54;;;;;;;5.57;3.73;;;24.90;60.50;;;;;;5009452;28;20446;-67
2022/08/15 09:44:38;;;;;;;4.47;3.87;;;25.00;60.50;;;;;;5012233;28;20493;-66
2022/08/15 09:47:32;;;;;;;4.50;3.43;;;24.80;60.20;;;;;;5011260;28;21064;-68
2022/08/15 09:50:18;;;;;;;6.00;3.90;;;24.80;60.60;;;;;;5010839;28;20940;-66
2022/08/15 09:52:59;;;;;;;5.80;4.43;;;24.60;61.00;;;;;;5007945;28;20446;-66
2022/08/15 09:55:44;;;;;;;6.50;4.63;;;24.50;62.30;;;;;;5010079;28;20454;-67
2022/08/15 09:58:19;;;;;;;5.93;4.40;;;24.50;62.30;;;;;;5009504;28;20462;-67
2022/08/15 10:01:00;;;;;;;5.97;3.90;;;24.30;62.30;;;;;;5008396;28;20438;-67
2022/08/15 10:03:59;;;;;;;4.43;4.03;;;24.20;62.40;;;;;;5010435;28;20442;-66
2022/08/15 10:06:30;;;;;;;4.63;3.73;;;24.10;62.50;;;;;;5007517;28;20522;-66
2022/08/15 10:09:32;;;;;;;4.40;3.63;;;24.10;62.30;;;;;;5010480;28;20445;-67
2022/08/15 10:12:22;;;;;;;4.70;3.63;;;24.00;61.10;;;;;;5009758;28;20983;-66
2022/08/15 10:15:03;;;;;;;4.93;3.50;;;24.00;62.30;;;;;;5010004;28;20441;-66
2022/08/15 10:17:54;;;;;;;5.13;4.27;;;24.10;63.10;;;;;;5009116;28;20481;-67
2022/08/15 10:20:52;;;;;;;5.10;3.80;;;24.10;61.10;;;;;;4998895;28;20461;-66
2022/08/15 10:23:29;;;;;;;4.50;3.73;;;24.10;60.90;;;;;;5008200;28;20975;-66
2022/08/15 10:26:26;;;;;;;4.60;3.80;;;24.10;61.00;;;;;;5010359;28;20478;-66
2022/08/15 10:29:24;;;;;;;6.00;4.80;;;24.20;62.60;;;;;;4999079;28;20450;-67
2022/08/15 10:32:03;;;;;;;5.50;4.23;;;24.20;63.00;;;;;;5012093;28;20449;-66
2022/08/15 10:34:41;;;;;;;4.60;3.80;;;24.20;62.20;;;;;;5006106;28;20439;-67
2022/08/15 10:37:23;;;;;;;5.03;3.60;;;24.10;62.90;;;;;;5007910;28;20438;-68
2022/08/15 10:40:30;;;;;;;5.70;3.53;;;24.10;63.80;;;;;;5006273;28;20514;-66
2022/08/15 10:43:21;;;;;;;5.57;3.20;;;24.20;62.80;;;;;;5009714;28;20458;-66
2022/08/15 10:45:54;;;;;;;4.30;3.43;;;24.20;63.00;;;;;;5008553;28;20485;-66
2022/08/15 10:48:34;;;;;;;3.93;3.23;;;24.20;62.30;;;;;;5009246;28;20446;-69
2022/08/15 10:51:36;;;;;;;4.20;3.67;;;24.30;61.50;;;;;;5007874;28;20905;-67
2022/08/15 10:54:25;;;;;;;5.03;3.30;;;24.40;63.10;;;;;;5011084;28;20522;-69
2022/08/15 10:57:03;;;;;;;5.93;4.00;;;24.50;63.10;;;;;;5009691;28;20558;-66
2022/08/15 10:59:36;;;;;;;3.93;3.53;;;24.60;62.00;;;;;;5007593;28;20450;-66
2022/08/15 11:02:09;;;;;;;5.33;3.33;;;24.60;61.30;;;;;;5010691;28;20450;-67
2022/08/15 11:04:46;;;;;;;6.83;3.03;;;24.80;60.30;;;;;;5006552;28;20813;-67
2022/08/15 11:07:23;;;;;;;5.10;4.07;;;25.10;59.90;;;;;;5010587;28;20486;-66
2022/08/15 11:09:57;;;;;;;4.90;3.80;;;25.50;58.90;;;;;;5007229;28;20979;-67
2022/08/15 11:12:36;;;;;;;5.70;3.63;;;26.00;59.60;;;;;;5010575;28;20452;-66
2022/08/15 11:15:17;;;;;;;4.80;3.67;;;26.40;56.90;;;;;;5010816;28;20439;-66
2022/08/15 11:17:46;;;;;;;4.20;3.27;;;26.80;56.00;;;;;;5010577;28;20521;-66
2022/08/15 11:20:19;;;;;;;4.50;2.90;;;27.10;54.60;;;;;;5014493;28;20513;-67
2022/08/15 11:22:57;;;;;;;6.60;3.50;;;27.40;52.60;;;;;;5010696;28;20442;-67
2022/08/15 11:25:30;;;;;;;4.50;3.07;;;27.70;53.30;;;;;;5010364;28;20995;-67
2022/08/15 11:28:03;;;;;;;5.87;3.13;;;27.90;52.40;;;;;;5010488;28;20546;-66
2022/08/15 11:30:43;;;;;;;5.03;2.80;;;28.10;52.60;;;;;;5006502;28;20454;-66
2022/08/15 11:33:21;;;;;;;3.90;3.17;;;28.30;53.10;;;;;;5010774;28;20453;-67
2022/08/15 11:35:49;;;;;;;3.40;2.60;;;28.60;53.50;;;;;;5007754;28;20433;-68
2022/08/15 11:38:17;;;;;;;5.10;2.73;;;28.70;50.40;;;;;;5004762;28;20438;-68
2022/08/15 11:40:53;;;;;;;7.00;2.47;;;28.80;50.90;;;;;;5009963;28;20453;-67
2022/08/15 11:43:20;;;;;;;4.00;2.37;;;29.00;47.80;;;;;;5006012;28;20921;-67
2022/08/15 11:46:00;;;;;;;3.57;2.30;;;29.10;47.90;;;;;;5005833;28;20439;-67
2022/08/15 11:48:45;;;;;;;3.80;2.40;;;29.40;49.40;;;;;;4970616;28;20434;-68
2022/08/15 11:51:27;;;;;;;2.80;1.83;;;29.50;48.10;;;;;;4999937;28;20439;-67
2022/08/15 11:54:08;;;;;;;3.60;2.20;;;29.60;46.70;;;;;;5012934;28;20442;-67
2022/08/15 11:56:56;;;;;;;2.73;1.87;;;29.60;43.90;;;;;;5000507;28;20445;-73
2022/08/15 11:59:27;;;;;;;3.60;1.90;;;29.60;42.80;;;;;;5010227;28;20439;-67
2022/08/15 12:02:14;;;;;;;3.60;2.60;;;29.60;43.40;;;;;;5004476;28;20465;-67
2022/08/15 12:04:44;;;;;;;3.87;2.70;;;29.50;42.20;;;;;;5009718;28;20537;-67
2022/08/15 12:07:16;;;;;;;5.20;2.37;;;29.50;43.30;;;;;;5012821;28;20505;-70
2022/08/15 12:09:55;;;;;;;3.73;2.73;;;29.40;43.60;;;;;;5010196;28;20434;-67
2022/08/15 12:12:32;;;;;;;4.37;2.23;;;29.40;42.90;;;;;;5014150;28;20499;-67
2022/08/15 12:15:09;;;;;;;3.77;2.10;;;29.40;43.40;;;;;;5013291;28;20422;-66
2022/08/15 12:17:39;;;;;;;3.00;2.30;;;29.20;43.80;;;;;;5013386;28;20545;-69
2022/08/15 12:20:09;;;;;;;5.47;2.97;;;29.20;42.60;;;;;;5012150;28;20431;-66
2022/08/15 12:22:39;;;;;;;3.40;2.40;;;29.10;43.00;;;;;;5013023;28;20470;-67
2022/08/15 12:25:14;;;;;;;4.73;2.47;;;29.10;41.80;;;;;;5013352;28;20554;-70
2022/08/15 12:27:43;;;;;;;3.60;2.10;;;29.00;42.70;;;;;;5013267;28;20477;-67
2022/08/15 12:30:16;;;;;;;3.03;2.20;;;29.00;42.70;;;;;;5013728;28;20444;-67
2022/08/15 12:32:51;;;;;;;3.27;2.40;;;29.00;42.30;;;;;;5012639;28;20435;-67
2022/08/15 12:35:22;;;;;;;4.03;2.17;;;29.00;41.90;;;;;;5013746;28;20438;-67
2022/08/15 12:37:49;;;;;;;4.40;2.10;;;29.10;42.60;;;;;;5012691;28;20443;-66
2022/08/15 12:40:17;;;;;;;3.10;2.17;;;29.10;42.00;;;;;;5013297;28;20443;-67
2022/08/15 12:42:46;;;;;;;2.80;1.80;;;29.10;40.50;;;;;;5013172;28;20443;-66
2022/08/15 12:45:18;;;;;;;3.03;2.13;;;28.90;39.00;;;;;;5009608;28;20711;-70
2022/08/15 12:47:50;;;;;;;3.50;2.50;;;28.80;40.40;;;;;;5001320;28;20565;-66
2022/08/15 12:50:20;;;;;;;3.10;2.20;;;28.70;40.30;;;;;;5016556;28;20434;-67
2022/08/15 12:52:53;;;;;;;4.83;2.30;;;28.70;39.90;;;;;;5012699;28;20436;-67
2022/08/15 12:55:20;;;;;;;3.37;2.03;;;28.70;41.20;;;;;;5013223;28;20450;-67
2022/08/15 12:57:53;;;;;;;3.53;1.77;;;28.80;40.90;;;;;;5012302;28;20482;-66
2022/08/15 13:00:20;;;;;;;3.13;1.70;;;28.90;41.40;;;;;;5008973;28;20439;-67
2022/08/15 13:02:49;;;;;;;3.90;2.40;;;29.00;40.60;;;;;;5012975;28;20525;-68
2022/08/15 13:05:30;;;;;;;5.17;2.33;;;29.10;40.10;;;;;;5011530;28;20922;-66
2022/08/15 13:07:57;;;;;;;3.30;2.47;;;29.10;41.10;;;;;;5008720;28;20568;-67
2022/08/15 13:10:34;;;;;;;4.53;2.10;;;29.30;41.20;;;;;;5012716;28;20442;-67
2022/08/15 13:13:03;;;;;;;3.67;2.30;;;29.50;40.90;;;;;;5011524;28;20517;-67
2022/08/15 13:15:32;;;;;;;3.07;1.60;;;29.50;40.00;;;;;;5012798;28;20453;-67
2022/08/15 13:17:59;;;;;;;3.10;2.07;;;29.60;40.00;;;;;;5012471;28;20441;-67
2022/08/15 13:25:57;;;;;;;3.90;2.23;;;29.10;37.30;;;;;;5011359;28;20441;-66
2022/08/15 13:28:26;;;;;;;2.83;1.67;;;29.10;38.60;;;;;;5012038;28;20831;-68
2022/08/15 13:30:53;;;;;;;3.60;2.07;;;29.20;38.70;;;;;;5008364;28;20443;-67